Time;durP1;ratioP1;P1;durP2;ratioP2;P2;SDS_P1;SDS_P2;PMS_P1;PMS_P2;Temp;Humidity;BMP_temperature;BMP_pressure;BME280_temperature;BME280_humidity;BME280_pressure;Samples;Min_cycle;Max_cycle;Signal;HPM_P1;HPM_P2
2022/09/11 00:00:27;;;;;;;1.60;0.83;;;18.10;99.90;;;;;;7382310;19;20424;-55
2022/09/11 00:02:59;;;;;;;1.27;0.80;;;18.10;99.90;;;;;;7391528;19;20379;-55
2022/09/11 00:05:30;;;;;;;1.43;1.00;;;18.10;99.90;;;;;;7390284;19;20371;-55
2022/09/11 00:07:59;;;;;;;2.17;1.27;;;18.00;99.90;;;;;;7389303;19;20391;-55
2022/09/11 00:10:29;;;;;;;2.70;1.03;;;17.80;99.90;;;;;;7390609;19;20383;-54
2022/09/11 00:12:58;;;;;;;3.13;1.07;;;17.90;99.90;;;;;;7388871;19;20375;-56
2022/09/11 00:15:27;;;;;;;1.50;1.00;;;18.00;99.90;;;;;;7390056;19;20372;-54
2022/09/11 00:18:02;;;;;;;2.33;1.20;;;18.10;99.90;;;;;;7388790;19;20801;-55
2022/09/11 00:20:32;;;;;;;1.23;0.80;;;18.20;99.90;;;;;;7389608;19;20432;-55
2022/09/11 00:23:03;;;;;;;2.40;1.00;;;18.30;99.90;;;;;;7391054;19;20894;-55
2022/09/11 00:25:35;;;;;;;3.03;0.97;;;18.20;99.90;;;;;;7388010;19;20377;-55
2022/09/11 00:28:05;;;;;;;1.10;1.00;;;18.00;99.90;;;;;;7390604;19;20380;-55
2022/09/11 00:30:35;;;;;;;5.93;2.00;;;18.00;99.90;;;;;;7388871;19;20383;-54
2022/09/11 00:33:07;;;;;;;2.33;1.23;;;17.90;99.90;;;;;;7388917;19;20750;-55
2022/09/11 00:35:39;;;;;;;1.10;0.80;;;18.00;99.90;;;;;;7389718;19;20368;-54
2022/09/11 00:38:10;;;;;;;1.03;0.80;;;18.00;99.90;;;;;;7388125;19;20381;-55
2022/09/11 00:40:46;;;;;;;1.70;0.80;;;18.00;99.90;;;;;;7390181;19;20435;-55
2022/09/11 00:43:17;;;;;;;2.90;1.57;;;18.10;99.90;;;;;;7387400;19;20379;-55
2022/09/11 00:45:49;;;;;;;1.40;0.70;;;18.10;99.90;;;;;;7389128;19;20388;-56
2022/09/11 00:48:25;;;;;;;2.10;1.07;;;18.20;99.90;;;;;;7388733;19;20380;-54
2022/09/11 00:50:58;;;;;;;1.50;1.10;;;18.20;99.90;;;;;;7388094;19;21031;-55
2022/09/11 00:53:37;;;;;;;1.63;0.93;;;18.10;99.90;;;;;;7387469;19;20379;-55
2022/09/11 00:56:12;;;;;;;1.10;0.80;;;18.10;99.90;;;;;;7387618;19;20881;-55
2022/09/11 00:58:44;;;;;;;3.93;1.00;;;18.10;99.90;;;;;;7387189;19;20910;-55
2022/09/11 01:01:14;;;;;;;1.47;0.77;;;18.10;99.90;;;;;;7385395;19;20511;-55
2022/09/11 01:03:46;;;;;;;0.80;0.80;;;18.10;99.90;;;;;;7388416;19;20954;-54
2022/09/11 01:06:16;;;;;;;2.40;0.80;;;18.20;99.90;;;;;;7386468;19;20417;-55
2022/09/11 01:08:45;;;;;;;1.50;1.10;;;18.10;99.90;;;;;;7386341;19;20747;-55
2022/09/11 01:11:27;;;;;;;1.67;1.00;;;18.10;99.90;;;;;;7385751;19;20951;-54
2022/09/11 01:14:02;;;;;;;2.17;1.20;;;18.00;99.90;;;;;;7386613;19;20419;-55
2022/09/11 01:16:39;;;;;;;1.60;0.90;;;18.10;99.90;;;;;;7387040;19;20763;-56
2022/09/11 01:19:26;;;;;;;2.40;1.00;;;18.00;99.90;;;;;;7385981;19;20399;-54
2022/09/11 01:22:18;;;;;;;4.50;1.17;;;18.10;99.90;;;;;;7388828;19;20382;-54
2022/09/11 01:25:09;;;;;;;1.17;0.80;;;18.10;99.90;;;;;;7387456;19;20447;-55
2022/09/11 01:27:46;;;;;;;2.30;0.90;;;18.00;99.90;;;;;;7388822;19;20387;-54
2022/09/11 01:30:19;;;;;;;1.87;1.10;;;18.00;99.90;;;;;;7386258;19;20949;-54
2022/09/11 01:33:05;;;;;;;2.57;1.37;;;18.00;99.90;;;;;;7386332;19;20373;-55
2022/09/11 01:35:48;;;;;;;1.87;1.13;;;18.10;99.90;;;;;;7386977;19;20758;-55
2022/09/11 01:38:28;;;;;;;2.50;1.13;;;18.10;99.90;;;;;;7386200;19;20698;-55
2022/09/11 01:41:01;;;;;;;1.30;1.10;;;18.10;99.90;;;;;;7386119;19;21463;-47
2022/09/11 01:43:36;;;;;;;2.07;1.43;;;18.20;99.90;;;;;;7387330;19;20372;-47
2022/09/11 01:46:09;;;;;;;2.10;1.13;;;18.10;99.90;;;;;;7386625;19;20476;-47
2022/09/11 01:48:43;;;;;;;2.53;0.97;;;18.00;99.90;;;;;;7385949;19;20384;-47
2022/09/11 01:51:18;;;;;;;1.10;1.00;;;18.00;99.90;;;;;;7385986;19;20462;-47
2022/09/11 01:53:53;;;;;;;2.20;1.10;;;18.00;99.90;;;;;;7384125;19;20372;-47
2022/09/11 01:56:26;;;;;;;3.07;1.03;;;17.90;99.90;;;;;;7385342;19;20380;-47
2022/09/11 01:59:04;;;;;;;2.30;1.30;;;17.90;99.90;;;;;;7384183;19;20816;-47
2022/09/11 02:01:37;;;;;;;3.27;1.70;;;17.90;99.90;;;;;;7383910;19;21017;-47
2022/09/11 02:04:12;;;;;;;4.20;1.63;;;17.80;99.90;;;;;;7384516;19;20368;-47
2022/09/11 02:06:47;;;;;;;2.13;1.30;;;17.80;99.90;;;;;;7386648;19;20383;-47
2022/09/11 02:09:23;;;;;;;3.10;2.10;;;17.80;99.90;;;;;;7382993;19;20960;-47
2022/09/11 02:11:56;;;;;;;2.03;1.10;;;17.80;99.90;;;;;;7385327;19;20451;-54
2022/09/11 02:14:31;;;;;;;4.20;1.70;;;17.80;99.90;;;;;;7383463;19;20365;-55
2022/09/11 02:17:10;;;;;;;3.37;1.57;;;17.80;99.90;;;;;;7384376;19;20372;-54
2022/09/11 02:19:40;;;;;;;1.50;1.20;;;17.70;99.90;;;;;;7383413;19;20376;-55
2022/09/11 02:22:10;;;;;;;2.47;1.23;;;17.80;99.90;;;;;;7384280;19;20376;-56
2022/09/11 02:24:40;;;;;;;2.20;1.30;;;17.80;99.90;;;;;;7382495;19;20383;-55
2022/09/11 02:27:16;;;;;;;1.47;1.03;;;17.70;99.90;;;;;;7384909;19;20389;-56
2022/09/11 02:29:48;;;;;;;3.57;1.60;;;17.70;99.90;;;;;;7383973;19;20386;-55
2022/09/11 02:32:19;;;;;;;1.63;1.53;;;17.80;99.90;;;;;;7382229;19;20765;-55
2022/09/11 02:34:49;;;;;;;1.93;1.30;;;17.80;99.90;;;;;;7380765;19;20376;-55
2022/09/11 02:37:33;;;;;;;2.57;1.27;;;17.90;99.90;;;;;;7383807;19;20368;-55
2022/09/11 02:40:28;;;;;;;3.07;1.43;;;17.90;99.90;;;;;;7383191;19;20953;-55
2022/09/11 02:43:24;;;;;;;2.37;1.20;;;17.90;99.90;;;;;;7382998;19;20736;-56
2022/09/11 02:46:16;;;;;;;2.13;1.57;;;18.00;99.90;;;;;;7383864;19;20388;-55
2022/09/11 02:48:56;;;;;;;1.30;1.03;;;17.90;99.90;;;;;;7384020;19;20376;-55
2022/09/11 02:51:35;;;;;;;2.70;1.40;;;17.90;99.90;;;;;;7383961;19;20372;-55
2022/09/11 02:54:16;;;;;;;3.23;1.23;;;18.00;99.90;;;;;;7383083;19;20379;-56
2022/09/11 02:56:50;;;;;;;6.70;2.00;;;18.00;99.90;;;;;;7383847;19;20396;-55
2022/09/11 02:59:23;;;;;;;2.30;1.40;;;17.90;99.90;;;;;;7384530;19;20414;-55
2022/09/11 03:02:00;;;;;;;2.70;1.47;;;17.80;99.90;;;;;;7381409;19;20442;-55
2022/09/11 03:04:33;;;;;;;1.63;1.10;;;17.80;99.90;;;;;;7383187;19;20384;-55
2022/09/11 03:07:03;;;;;;;3.83;1.60;;;17.80;99.90;;;;;;7383292;19;20768;-55
2022/09/11 03:09:34;;;;;;;1.67;1.27;;;17.80;99.90;;;;;;7380729;19;20388;-55
2022/09/11 03:12:10;;;;;;;2.17;1.30;;;17.90;99.90;;;;;;7382866;19;21832;-47
2022/09/11 03:14:40;;;;;;;2.53;1.23;;;17.90;99.90;;;;;;7383047;19;20962;-47
2022/09/11 03:17:12;;;;;;;4.47;1.40;;;17.90;99.90;;;;;;7382509;19;20384;-48
2022/09/11 03:19:42;;;;;;;1.90;1.40;;;18.00;99.90;;;;;;7381529;19;20723;-48
2022/09/11 03:22:13;;;;;;;2.63;1.17;;;18.00;99.90;;;;;;7383199;19;20375;-48
2022/09/11 03:24:43;;;;;;;1.83;1.10;;;18.00;99.90;;;;;;7384930;19;20372;-47
2022/09/11 03:27:14;;;;;;;2.80;1.30;;;18.00;99.90;;;;;;7382466;19;20377;-47
2022/09/11 03:29:44;;;;;;;2.00;1.53;;;18.00;99.90;;;;;;7382240;19;20774;-47
2022/09/11 03:32:16;;;;;;;2.33;1.50;;;17.90;99.90;;;;;;7383230;19;20395;-48
2022/09/11 03:34:46;;;;;;;1.67;1.10;;;18.00;99.90;;;;;;7384635;19;20868;-47
2022/09/11 03:37:18;;;;;;;1.67;1.40;;;18.00;99.90;;;;;;7391000;19;20371;-48
2022/09/11 03:39:48;;;;;;;3.27;2.40;;;18.00;99.90;;;;;;7388733;19;20840;-55
2022/09/11 03:42:18;;;;;;;3.80;1.67;;;17.80;99.90;;;;;;7389681;19;20376;-56
2022/09/11 03:44:47;;;;;;;1.10;1.00;;;17.90;99.90;;;;;;7389851;19;20880;-55
2022/09/11 03:47:21;;;;;;;3.33;1.40;;;17.90;99.90;;;;;;7389342;19;20376;-55
2022/09/11 03:49:50;;;;;;;2.50;1.40;;;18.10;99.90;;;;;;7390672;19;20376;-55
2022/09/11 03:52:20;;;;;;;3.50;1.60;;;18.10;99.90;;;;;;7389436;19;20372;-55
2022/09/11 03:54:51;;;;;;;2.10;1.63;;;18.10;99.90;;;;;;7390078;19;20380;-55
2022/09/11 03:57:21;;;;;;;2.80;1.43;;;18.10;99.90;;;;;;7389589;19;20409;-55
2022/09/11 03:59:50;;;;;;;1.90;1.63;;;18.00;99.90;;;;;;7389023;19;20814;-56
2022/09/11 04:02:22;;;;;;;3.00;1.80;;;17.90;99.90;;;;;;7386522;19;20800;-55
2022/09/11 04:04:52;;;;;;;3.33;2.13;;;17.90;99.90;;;;;;7390383;19;20364;-55
2022/09/11 04:07:22;;;;;;;2.10;1.40;;;17.90;99.90;;;;;;7389345;19;20416;-55
2022/09/11 04:09:51;;;;;;;2.07;1.80;;;18.00;99.90;;;;;;7389314;19;20392;-47
2022/09/11 04:12:21;;;;;;;4.80;1.93;;;18.00;99.90;;;;;;7390492;19;20796;-48
2022/09/11 04:14:51;;;;;;;3.03;1.80;;;18.10;99.90;;;;;;7389550;19;20444;-48
2022/09/11 04:17:23;;;;;;;2.57;2.10;;;18.10;99.90;;;;;;7387660;19;20366;-48
2022/09/11 04:19:52;;;;;;;2.63;1.50;;;18.00;99.90;;;;;;7388031;19;20379;-48
2022/09/11 04:22:23;;;;;;;2.70;1.70;;;18.00;99.90;;;;;;7388800;19;20742;-48
2022/09/11 04:24:53;;;;;;;2.30;2.03;;;18.00;99.90;;;;;;7388836;19;20380;-48
2022/09/11 04:27:26;;;;;;;4.07;2.10;;;18.00;99.90;;;;;;7389362;19;20719;-47
2022/09/11 04:29:55;;;;;;;2.40;2.03;;;18.00;99.90;;;;;;7389501;19;20380;-48
2022/09/11 04:32:28;;;;;;;2.23;1.90;;;18.00;99.90;;;;;;7374564;19;20380;-48
2022/09/11 04:35:00;;;;;;;2.50;1.90;;;18.00;99.90;;;;;;7373316;19;20417;-47
2022/09/11 04:37:34;;;;;;;2.73;2.20;;;18.10;99.90;;;;;;7382935;19;20937;-47
2022/09/11 04:40:04;;;;;;;3.37;2.10;;;18.20;99.90;;;;;;7370608;19;20421;-55
2022/09/11 04:42:34;;;;;;;1.87;1.63;;;18.20;99.90;;;;;;7372760;19;21999;-57
2022/09/11 04:45:07;;;;;;;5.80;2.90;;;18.50;99.90;;;;;;7373271;19;20453;-56
2022/09/11 04:47:39;;;;;;;3.03;2.03;;;18.70;99.90;;;;;;7381500;19;20445;-56
2022/09/11 04:50:11;;;;;;;2.80;2.60;;;18.70;99.90;;;;;;7382709;19;20380;-56
2022/09/11 04:52:42;;;;;;;1.93;1.70;;;18.80;99.90;;;;;;7385089;19;20396;-56
2022/09/11 04:55:12;;;;;;;3.33;2.43;;;18.90;99.90;;;;;;7382141;19;20385;-55
2022/09/11 04:57:42;;;;;;;3.93;2.60;;;19.00;99.90;;;;;;7383309;19;20368;-56
2022/09/11 05:00:14;;;;;;;3.23;2.80;;;19.00;99.90;;;;;;7379479;19;20376;-55
2022/09/11 05:02:47;;;;;;;3.93;2.97;;;18.80;99.90;;;;;;7382794;19;20416;-55
2022/09/11 05:05:17;;;;;;;3.47;3.17;;;18.70;99.90;;;;;;7381590;19;20380;-56
2022/09/11 05:07:50;;;;;;;3.50;3.00;;;18.70;99.90;;;;;;7373869;19;20445;-55
2022/09/11 05:10:20;;;;;;;4.57;3.03;;;18.70;99.90;;;;;;7380357;19;20413;-56
2022/09/11 05:12:50;;;;;;;4.67;2.73;;;18.60;99.90;;;;;;7382921;19;20372;-56
2022/09/11 05:15:23;;;;;;;2.90;2.70;;;18.60;99.90;;;;;;7377986;19;20379;-56
2022/09/11 05:17:55;;;;;;;6.27;2.90;;;18.60;99.90;;;;;;7379570;19;20376;-47
2022/09/11 05:20:24;;;;;;;3.03;2.43;;;18.60;99.90;;;;;;7381979;19;20784;-47
2022/09/11 05:22:54;;;;;;;3.50;2.83;;;18.60;99.90;;;;;;7371448;19;20376;-47
2022/09/11 05:25:24;;;;;;;3.30;3.00;;;18.50;99.90;;;;;;7381522;19;20767;-47
2022/09/11 05:27:53;;;;;;;3.77;2.80;;;18.60;99.90;;;;;;7385764;19;20409;-47
2022/09/11 05:30:22;;;;;;;3.10;2.77;;;18.80;99.90;;;;;;7381409;19;20373;-47
2022/09/11 05:32:57;;;;;;;3.10;2.80;;;18.90;99.90;;;;;;7380978;19;20926;-47
2022/09/11 05:35:27;;;;;;;3.33;2.90;;;18.90;99.90;;;;;;7381811;19;20447;-47
2022/09/11 05:37:57;;;;;;;3.67;3.10;;;18.90;99.90;;;;;;7375155;19;20474;-48
2022/09/11 05:40:26;;;;;;;3.73;2.90;;;18.90;99.90;;;;;;7381044;19;20373;-47
2022/09/11 05:42:56;;;;;;;3.70;2.40;;;18.90;99.90;;;;;;7376375;19;20796;-48
2022/09/11 05:45:26;;;;;;;4.40;3.27;;;19.10;99.90;;;;;;7380005;19;20899;-48
2022/09/11 05:47:58;;;;;;;3.40;3.20;;;19.20;99.90;;;;;;7380723;19;20417;-47
2022/09/11 05:50:30;;;;;;;4.80;2.90;;;19.30;99.90;;;;;;7380165;19;20435;-55
2022/09/11 05:53:00;;;;;;;4.07;2.90;;;19.20;99.90;;;;;;7376650;19;20487;-56
2022/09/11 05:55:29;;;;;;;4.60;3.13;;;19.10;99.90;;;;;;7378383;19;20372;-56
2022/09/11 05:57:58;;;;;;;2.97;2.47;;;18.90;99.90;;;;;;7380239;19;20368;-55
2022/09/11 06:00:28;;;;;;;2.83;2.33;;;19.00;99.90;;;;;;7376018;19;20428;-55
2022/09/11 06:03:02;;;;;;;6.63;2.93;;;19.20;99.60;;;;;;7382550;19;20982;-57
2022/09/11 06:05:32;;;;;;;4.37;2.93;;;19.40;99.20;;;;;;7381034;19;20941;-56
2022/09/11 06:08:07;;;;;;;3.50;3.00;;;19.30;99.90;;;;;;7381989;19;20388;-56
2022/09/11 06:10:38;;;;;;;9.43;3.20;;;19.10;99.90;;;;;;7376337;19;20380;-56
2022/09/11 06:13:08;;;;;;;3.60;3.30;;;19.00;99.90;;;;;;7383074;19;20376;-55
2022/09/11 06:15:38;;;;;;;4.67;3.53;;;19.00;99.90;;;;;;7376000;19;20467;-56
2022/09/11 06:18:10;;;;;;;7.80;3.10;;;19.00;99.90;;;;;;7377189;19;20379;-56
2022/09/11 06:20:40;;;;;;;5.67;3.97;;;19.00;99.90;;;;;;7380029;19;20455;-47
2022/09/11 06:23:15;;;;;;;3.70;3.40;;;19.00;99.90;;;;;;7381740;19;20372;-47
2022/09/11 06:25:45;;;;;;;7.43;4.40;;;19.00;99.90;;;;;;7378469;19;20791;-47
2022/09/11 06:28:15;;;;;;;5.50;4.20;;;18.90;99.90;;;;;;7381216;19;20371;-47
2022/09/11 06:30:44;;;;;;;4.07;3.43;;;18.90;99.90;;;;;;7374699;19;20474;-47
2022/09/11 06:33:19;;;;;;;5.60;3.13;;;19.00;99.90;;;;;;7375854;19;20383;-47
2022/09/11 06:35:59;;;;;;;4.13;3.33;;;18.90;99.90;;;;;;7377577;19;20371;-47
2022/09/11 06:38:30;;;;;;;4.53;3.67;;;19.00;99.90;;;;;;7379932;19;20955;-47
2022/09/11 06:41:03;;;;;;;4.97;4.43;;;19.00;99.90;;;;;;7374459;19;20379;-47
2022/09/11 06:43:36;;;;;;;4.20;3.80;;;19.10;99.90;;;;;;7382806;19;20415;-47
2022/09/11 06:46:06;;;;;;;4.40;4.00;;;19.00;99.90;;;;;;7376868;19;20372;-47
2022/09/11 06:48:38;;;;;;;5.00;4.40;;;18.90;99.90;;;;;;7376948;19;21445;-47
2022/09/11 06:51:12;;;;;;;5.10;4.60;;;18.80;99.90;;;;;;7382618;19;20485;-47
2022/09/11 06:53:46;;;;;;;6.13;3.70;;;18.90;99.90;;;;;;7377894;19;21061;-47
2022/09/11 06:56:18;;;;;;;4.10;3.50;;;18.80;99.90;;;;;;7374181;19;20419;-47
2022/09/11 06:58:49;;;;;;;5.20;4.43;;;18.80;99.90;;;;;;7376229;19;20383;-47
2022/09/11 07:01:20;;;;;;;6.10;4.93;;;18.90;99.90;;;;;;7375535;19;20495;-47
2022/09/11 07:03:58;;;;;;;5.03;3.70;;;18.90;99.90;;;;;;7379530;19;20376;-47
2022/09/11 07:06:33;;;;;;;8.40;5.00;;;18.80;99.90;;;;;;7379215;19;20404;-47
2022/09/11 07:09:04;;;;;;;5.30;4.80;;;18.80;99.90;;;;;;7379429;19;20420;-47
2022/09/11 07:11:45;;;;;;;7.43;5.70;;;18.80;99.90;;;;;;7377094;19;20372;-47
2022/09/11 07:14:20;;;;;;;7.43;4.80;;;18.80;99.90;;;;;;7378804;19;20422;-47
2022/09/11 07:16:54;;;;;;;5.53;4.70;;;18.80;99.90;;;;;;7381873;19;20392;-47
2022/09/11 07:19:29;;;;;;;6.10;5.50;;;18.90;99.90;;;;;;7378241;19;20376;-47
2022/09/11 07:22:01;;;;;;;6.13;5.30;;;18.90;99.90;;;;;;7379475;19;20380;-47
2022/09/11 07:24:31;;;;;;;5.20;4.70;;;19.00;99.90;;;;;;7375675;19;20371;-47
2022/09/11 07:27:01;;;;;;;6.30;5.77;;;19.00;99.90;;;;;;7378524;19;20385;-47
2022/09/11 07:29:35;;;;;;;5.20;4.20;;;18.90;99.90;;;;;;7376742;19;20412;-47
2022/09/11 07:32:05;;;;;;;6.50;5.90;;;18.80;99.90;;;;;;7377250;19;20360;-47
2022/09/11 07:34:39;;;;;;;9.30;4.93;;;18.80;99.90;;;;;;7377898;19;20769;-46
2022/09/11 07:37:12;;;;;;;4.37;3.57;;;18.90;99.90;;;;;;7378381;19;20909;-47
2022/09/11 07:39:42;;;;;;;3.73;3.43;;;19.00;99.90;;;;;;7378695;19;20375;-47
2022/09/11 07:42:18;;;;;;;5.10;4.60;;;19.20;99.90;;;;;;7372019;19;20393;-47
2022/09/11 07:44:49;;;;;;;6.47;5.70;;;19.30;99.90;;;;;;7378398;19;20490;-47
2022/09/11 07:47:21;;;;;;;7.17;6.47;;;19.20;99.90;;;;;;7381218;19;20364;-47
2022/09/11 07:49:56;;;;;;;7.37;6.50;;;18.90;99.90;;;;;;7377890;19;20391;-47
2022/09/11 07:52:29;;;;;;;6.77;5.47;;;18.90;99.90;;;;;;7367077;19;20364;-47
2022/09/11 07:55:02;;;;;;;6.77;6.00;;;19.00;99.90;;;;;;7378433;19;20449;-47
2022/09/11 07:57:35;;;;;;;6.90;6.00;;;18.70;99.90;;;;;;7383229;19;20383;-47
2022/09/11 08:00:11;;;;;;;6.80;5.07;;;18.60;99.90;;;;;;7371758;19;20367;-46
2022/09/11 08:02:50;;;;;;;7.00;5.73;;;18.70;99.90;;;;;;7372188;19;21104;-47
2022/09/11 08:05:32;;;;;;;6.00;5.40;;;18.70;99.90;;;;;;7371306;19;20937;-47
2022/09/11 08:08:02;;;;;;;13.43;5.93;;;18.80;99.90;;;;;;7377211;19;20403;-47
2022/09/11 08:10:32;;;;;;;9.83;6.60;;;18.80;99.90;;;;;;7377673;19;20368;-47
2022/09/11 08:13:04;;;;;;;6.70;6.10;;;18.90;99.90;;;;;;7379271;19;20380;-47
2022/09/11 08:15:36;;;;;;;6.70;5.47;;;19.00;99.90;;;;;;7374611;19;20413;-47
2022/09/11 08:18:08;;;;;;;6.60;5.60;;;19.10;99.90;;;;;;7378900;19;20361;-47
2022/09/11 08:20:40;;;;;;;7.07;6.33;;;19.00;99.90;;;;;;7377039;19;21099;-55
2022/09/11 08:23:11;;;;;;;9.60;5.77;;;19.10;99.90;;;;;;7380056;19;20365;-55
2022/09/11 08:25:41;;;;;;;6.20;5.60;;;19.20;99.90;;;;;;7381524;19;20387;-55
2022/09/11 08:28:11;;;;;;;5.63;5.13;;;19.20;99.90;;;;;;7386339;19;20410;-55
2022/09/11 08:30:41;;;;;;;7.53;5.63;;;19.00;99.90;;;;;;7381135;19;20364;-55
2022/09/11 08:33:14;;;;;;;6.60;4.60;;;19.30;99.90;;;;;;7381388;19;20427;-54
2022/09/11 08:35:49;;;;;;;8.77;5.37;;;19.30;99.90;;;;;;7381059;19;20704;-55
2022/09/11 08:38:19;;;;;;;6.93;5.30;;;19.50;99.00;;;;;;7386666;19;20372;-55
2022/09/11 08:40:49;;;;;;;7.30;5.77;;;19.70;97.80;;;;;;7383385;19;20440;-55
2022/09/11 08:43:23;;;;;;;5.63;5.13;;;19.80;96.70;;;;;;7383464;19;20380;-55
2022/09/11 08:45:59;;;;;;;6.50;5.00;;;20.00;96.10;;;;;;7378500;19;20419;-55
2022/09/11 08:48:37;;;;;;;6.20;5.40;;;20.30;94.50;;;;;;7380083;19;20992;-55
2022/09/11 08:51:14;;;;;;;10.30;6.07;;;20.30;93.20;;;;;;7382131;19;20372;-46
2022/09/11 08:53:44;;;;;;;7.10;6.17;;;19.80;94.20;;;;;;7383016;19;20483;-46
2022/09/11 08:56:21;;;;;;;6.37;5.80;;;19.30;96.80;;;;;;7381218;19;20405;-46
2022/09/11 08:59:09;;;;;;;6.57;5.87;;;19.20;97.90;;;;;;7382884;19;20475;-47
2022/09/11 09:01:45;;;;;;;5.50;5.00;;;19.20;98.10;;;;;;7381535;19;20827;-47
2022/09/11 09:04:40;;;;;;;6.10;5.50;;;19.40;98.00;;;;;;7382991;19;20775;-47
2022/09/11 09:07:21;;;;;;;7.67;5.63;;;19.60;97.50;;;;;;7375968;19;20368;-47
2022/09/11 09:09:59;;;;;;;6.10;5.17;;;20.00;96.40;;;;;;7383261;19;20387;-47
2022/09/11 09:12:36;;;;;;;8.30;5.00;;;20.70;92.30;;;;;;7385604;19;20379;-47
2022/09/11 09:15:21;;;;;;;6.93;4.30;;;21.60;89.20;;;;;;7383557;19;20435;-48
2022/09/11 09:17:58;;;;;;;6.43;4.40;;;22.60;82.10;;;;;;7383595;19;20403;-48
2022/09/11 09:20:31;;;;;;;6.23;4.10;;;23.10;77.10;;;;;;7384604;19;20439;-48
2022/09/11 09:23:09;;;;;;;15.20;4.43;;;23.30;74.00;;;;;;7379408;19;20384;-48
2022/09/11 09:25:44;;;;;;;5.20;4.30;;;23.20;71.60;;;;;;7386448;19;20727;-48
2022/09/11 09:28:23;;;;;;;5.70;4.23;;;23.00;71.10;;;;;;7382865;19;20389;-47
2022/09/11 09:30:57;;;;;;;6.33;4.23;;;23.20;70.40;;;;;;7384325;19;20729;-48
2022/09/11 09:33:34;;;;;;;5.73;4.50;;;23.80;68.00;;;;;;7380441;19;20476;-48
2022/09/11 09:36:16;;;;;;;5.40;3.57;;;23.80;65.10;;;;;;7385852;19;21311;-48
2022/09/11 09:38:49;;;;;;;3.73;3.40;;;23.80;66.00;;;;;;7382474;19;20376;-48
2022/09/11 09:41:55;;;;;;;5.07;3.80;;;23.60;65.70;;;;;;7386022;19;20376;-47
2022/09/11 09:44:37;;;;;;;4.30;3.90;;;23.60;64.80;;;;;;7382684;19;20445;-47
2022/09/11 09:47:11;;;;;;;4.43;3.73;;;22.90;65.30;;;;;;7381666;19;20368;-47
2022/09/11 09:49:41;;;;;;;5.30;4.00;;;22.60;67.70;;;;;;7383382;19;20384;-48
2022/09/11 09:52:21;;;;;;;5.00;4.00;;;22.40;68.50;;;;;;7380001;19;20455;-56
2022/09/11 09:54:59;;;;;;;4.43;3.50;;;22.10;70.30;;;;;;7385196;19;20372;-56
2022/09/11 09:57:33;;;;;;;4.73;4.33;;;21.90;72.30;;;;;;7382723;19;20376;-56
2022/09/11 10:00:08;;;;;;;6.73;4.80;;;21.50;74.10;;;;;;7384474;19;20970;-56
2022/09/11 10:02:48;;;;;;;5.23;4.70;;;21.60;75.30;;;;;;7382224;19;20376;-56
2022/09/11 10:05:27;;;;;;;5.23;4.57;;;21.40;76.00;;;;;;7380838;19;20771;-56
2022/09/11 10:08:01;;;;;;;4.70;4.30;;;21.30;76.80;;;;;;7385954;19;20399;-55
2022/09/11 10:10:37;;;;;;;7.10;4.63;;;21.20;77.80;;;;;;7379321;19;20712;-56
2022/09/11 10:13:23;;;;;;;4.10;3.70;;;21.40;76.50;;;;;;7383098;19;20435;-56
2022/09/11 10:15:55;;;;;;;4.13;3.83;;;21.50;75.30;;;;;;7383343;19;20630;-56
2022/09/11 10:18:34;;;;;;;7.73;4.30;;;21.60;73.60;;;;;;7379242;19;20456;-56
2022/09/11 10:21:23;;;;;;;5.43;4.40;;;21.60;72.60;;;;;;7386809;19;21067;-56
2022/09/11 10:23:55;;;;;;;5.50;4.40;;;21.60;72.20;;;;;;7385871;19;20822;-56
2022/09/11 10:26:31;;;;;;;4.70;3.70;;;21.70;72.40;;;;;;7380264;19;20817;-56
2022/09/11 10:29:06;;;;;;;5.90;4.50;;;21.80;72.80;;;;;;7379419;19;20372;-54
2022/09/11 10:31:37;;;;;;;5.90;4.77;;;21.90;72.60;;;;;;7376055;19;20907;-48
2022/09/11 10:34:07;;;;;;;4.80;4.40;;;21.70;73.80;;;;;;7369035;19;20384;-47
2022/09/11 10:36:36;;;;;;;6.63;5.10;;;21.60;75.00;;;;;;7380157;19;20367;-47
2022/09/11 10:39:06;;;;;;;5.60;4.57;;;21.50;75.00;;;;;;7380019;19;20380;-47
2022/09/11 10:41:38;;;;;;;5.87;4.27;;;21.60;76.60;;;;;;7383504;19;20776;-47
2022/09/11 10:44:12;;;;;;;6.00;4.70;;;22.30;73.60;;;;;;7372866;19;20440;-48
2022/09/11 10:46:44;;;;;;;4.57;4.17;;;22.30;73.80;;;;;;7376400;19;20384;-47
2022/09/11 10:49:20;;;;;;;4.10;3.80;;;22.50;72.00;;;;;;7381440;19;20371;-47
2022/09/11 10:52:04;;;;;;;6.33;4.80;;;22.80;71.10;;;;;;7375710;19;20961;-48
2022/09/11 10:54:46;;;;;;;4.90;4.50;;;22.80;69.50;;;;;;7376673;19;20380;-48
2022/09/11 10:57:23;;;;;;;4.63;4.23;;;23.00;70.20;;;;;;7377101;19;20439;-48
2022/09/11 11:00:03;;;;;;;5.30;4.30;;;23.70;68.60;;;;;;7380274;19;20954;-48
2022/09/11 11:02:35;;;;;;;4.50;4.10;;;24.70;64.10;;;;;;7372282;19;20391;-49
2022/09/11 11:05:08;;;;;;;9.70;5.13;;;25.60;59.00;;;;;;7374012;19;20872;-48
2022/09/11 11:08:12;;;;;;;7.13;4.27;;;26.20;57.50;;;;;;7375312;19;20979;-48
2022/09/11 11:11:02;;;;;;;5.07;4.50;;;26.50;56.60;;;;;;7380546;19;20384;-48
2022/09/11 11:13:48;;;;;;;4.97;3.97;;;26.70;56.40;;;;;;7365159;19;20729;-49
2022/09/11 11:16:24;;;;;;;3.83;3.43;;;26.70;54.80;;;;;;7370538;19;20406;-48
2022/09/11 11:19:12;;;;;;;5.50;3.73;;;26.30;55.60;;;;;;7373927;19;20367;-48
2022/09/11 11:21:55;;;;;;;4.30;3.90;;;25.90;55.50;;;;;;7365148;19;20463;-49
2022/09/11 11:24:41;;;;;;;4.00;3.70;;;25.60;56.70;;;;;;7365926;19;20904;-48
2022/09/11 11:27:31;;;;;;;3.80;3.50;;;25.40;57.00;;;;;;7367667;19;20873;-48
2022/09/11 11:30:22;;;;;;;5.87;4.83;;;25.20;56.90;;;;;;7367552;19;20779;-49
2022/09/11 11:33:16;;;;;;;5.17;4.67;;;24.80;57.50;;;;;;7379332;19;20730;-48
2022/09/11 11:35:56;;;;;;;6.70;5.37;;;24.30;58.60;;;;;;7376683;19;20376;-48
2022/09/11 11:38:31;;;;;;;4.40;4.00;;;24.20;59.60;;;;;;7381724;19;20364;-48
2022/09/11 11:41:06;;;;;;;5.20;4.60;;;24.20;60.10;;;;;;7381629;19;20368;-48
2022/09/11 11:43:40;;;;;;;6.33;4.80;;;24.40;60.00;;;;;;7371826;19;20383;-48
2022/09/11 11:46:17;;;;;;;5.03;4.57;;;25.10;57.50;;;;;;7373249;19;20409;-49
2022/09/11 11:48:54;;;;;;;5.07;4.57;;;25.60;56.20;;;;;;7374300;19;20384;-48
2022/09/11 11:51:28;;;;;;;6.23;3.83;;;26.30;54.50;;;;;;7380209;19;20458;-49
2022/09/11 11:54:05;;;;;;;6.00;4.07;;;26.90;54.10;;;;;;7375465;19;20916;-49
2022/09/11 11:56:42;;;;;;;5.60;3.87;;;27.20;51.30;;;;;;7378141;19;20475;-48
2022/09/11 11:59:16;;;;;;;4.00;3.53;;;27.10;51.10;;;;;;7380647;19;20450;-48
2022/09/11 12:01:56;;;;;;;3.77;3.47;;;27.60;50.60;;;;;;7377288;19;20980;-56
2022/09/11 12:04:42;;;;;;;3.60;3.30;;;28.20;50.00;;;;;;7387415;19;20380;-56
2022/09/11 12:07:18;;;;;;;3.30;3.00;;;28.40;48.70;;;;;;7386168;19;20428;-56
2022/09/11 12:09:50;;;;;;;3.17;2.87;;;28.10;49.90;;;;;;7379067;19;20790;-56
2022/09/11 12:12:21;;;;;;;3.50;2.77;;;28.20;47.50;;;;;;7377439;19;20443;-58
2022/09/11 12:14:53;;;;;;;8.63;3.03;;;28.70;48.70;;;;;;7379490;19;20893;-57
2022/09/11 12:17:28;;;;;;;3.13;2.87;;;28.70;48.30;;;;;;7379429;19;20948;-56
2022/09/11 12:20:32;;;;;;;3.43;2.90;;;28.30;48.70;;;;;;7385820;19;20874;-57
2022/09/11 12:23:02;;;;;;;3.97;3.43;;;28.30;48.50;;;;;;7380178;19;20740;-57
2022/09/11 12:26:06;;;;;;;7.83;3.80;;;28.10;47.20;;;;;;7386470;19;20412;-57
2022/09/11 12:28:36;;;;;;;3.50;3.20;;;28.40;48.80;;;;;;7386179;19;20379;-57
2022/09/11 12:31:10;;;;;;;4.10;3.70;;;27.30;47.30;;;;;;7378600;19;20965;-49
2022/09/11 12:33:57;;;;;;;3.77;3.20;;;26.80;49.20;;;;;;7382303;19;20372;-49
2022/09/11 12:36:45;;;;;;;4.20;3.30;;;26.80;49.20;;;;;;7365343;19;20376;-49
2022/09/11 12:39:29;;;;;;;3.50;3.20;;;26.80;49.20;;;;;;7383487;19;20415;-49
2022/09/11 12:42:43;;;;;;;5.13;4.20;;;26.70;49.50;;;;;;7386468;19;20383;-49
2022/09/11 12:45:37;;;;;;;5.10;3.80;;;26.20;51.80;;;;;;7378375;19;20380;-48
2022/09/11 12:48:11;;;;;;;6.17;4.30;;;25.60;53.80;;;;;;7370896;19;20378;-48
2022/09/11 12:50:51;;;;;;;4.73;4.33;;;25.10;55.20;;;;;;7380860;19;20368;-48
2022/09/11 12:53:25;;;;;;;3.90;3.40;;;24.70;56.70;;;;;;7382785;19;20376;-48
2022/09/11 12:56:03;;;;;;;5.47;4.90;;;24.60;57.10;;;;;;7380040;19;20392;-48
2022/09/11 12:58:38;;;;;;;5.07;4.13;;;24.10;58.10;;;;;;7383857;19;20364;-48
2022/09/11 13:01:17;;;;;;;4.37;3.70;;;23.90;59.60;;;;;;7377281;19;20442;-56
2022/09/11 13:03:56;;;;;;;5.83;3.73;;;23.90;59.30;;;;;;7384532;19;20380;-57
2022/09/11 13:06:41;;;;;;;8.80;4.77;;;24.00;58.90;;;;;;7383885;19;20372;-56
2022/09/11 13:09:22;;;;;;;5.13;4.00;;;23.80;60.00;;;;;;7378867;19;20482;-56
2022/09/11 13:11:53;;;;;;;4.27;3.87;;;23.80;59.40;;;;;;7373734;19;20741;-56
2022/09/11 13:14:57;;;;;;;5.93;4.20;;;23.90;59.60;;;;;;7382152;19;20366;-57
2022/09/11 13:17:29;;;;;;;5.00;4.50;;;24.00;59.70;;;;;;7337836;19;20978;-56
2022/09/11 13:20:23;;;;;;;4.67;4.27;;;24.10;58.40;;;;;;7380079;19;20383;-59
2022/09/11 13:23:11;;;;;;;4.53;4.00;;;24.40;59.00;;;;;;7381571;19;20387;-56
2022/09/11 13:25:42;;;;;;;4.70;4.27;;;24.30;58.40;;;;;;7374106;19;20368;-57